This is the latest recevied weather packets stored in our database for station/object S54MI-13. If no packets are shown the sender has not sent any weather packets the latest 10 day(s).
| Time | Temp. | Humidity | Pressure | Rain* | Wind** | Luminosity | Snow |
|---|---|---|---|---|---|---|---|
| 1777440019 | 15° C | 59% | - | - | - | 76 W/m² | - |
| 1777430658 | 14.44° C | 58% | - | - | - | 0 W/m² | - |
| 1777429218 | 14.44° C | 59% | - | - | - | 0 W/m² | - |
| 1777427778 | 14.44° C | 58% | - | - | - | 0 W/m² | - |
| 1777422757 | 15° C | 56% | - | - | - | 0 W/m² | - |
| 1777420598 | 15.56° C | 56% | - | - | - | 0 W/m² | - |
| 1777419138 | 15.56° C | 56% | - | - | - | 0 W/m² | - |
| 1777416257 | 16.11° C | 56% | - | - | - | 0 W/m² | - |
| 1777415537 | 16.11° C | 56% | - | - | - | 0 W/m² | - |
| 1777412677 | 15.56° C | 56% | - | - | - | 0 W/m² | - |
| 1777408337 | 16.67° C | 53% | - | - | - | 0 W/m² | - |
| 1777407618 | 16.67° C | 53% | - | - | - | 0 W/m² | - |
| 1777401857 | 16.67° C | 58% | - | - | - | 2 W/m² | - |
| 1777401135 | 16.67° C | 60% | - | - | - | 5 W/m² | - |
| 1777398976 | 17.22° C | 60% | - | - | - | 39 W/m² | - |
| 1777391056 | 21.11° C | 49% | - | - | - | 332 W/m² | - |
| 1777390336 | 21.67° C | 48% | - | - | - | 357 W/m² | - |
| 1777384575 | 22.22° C | 45% | - | - | - | 437 W/m² | - |
| 1777383158 | 22.78° C | 42% | - | - | - | 473 W/m² | - |
| 1777378815 | 24.44° C | 41% | - | - | - | 833 W/m² | - |
| 1777378095 | 23.89° C | 40% | - | - | - | 867 W/m² | - |
| 1777375215 | 23.89° C | 39% | - | - | - | 857 W/m² | - |
| 1777370901 | 21.67° C | 40% | - | - | - | 793 W/m² | - |
| 1777369465 | 21.67° C | 41% | - | - | - | 780 W/m² | - |
| 1777365865 | 20.56° C | 46% | - | - | - | 694 W/m² | - |
* Rain since midnight (hover to see other rain measurements)
** Current wind speed in m/s (hover to see current wind gust speed)